createdAt,value
2016-11-18T00:00:55.197Z,0
2016-11-18T00:02:03.810Z,0
2016-11-18T00:03:12.452Z,0
2016-11-18T00:04:21.094Z,0
2016-11-18T00:05:29.745Z,0
2016-11-18T00:06:38.397Z,0
2016-11-18T00:07:47.036Z,0
2016-11-18T00:08:55.704Z,0
2016-11-18T00:10:04.309Z,0
2016-11-18T00:11:12.928Z,0
2016-11-18T00:12:21.578Z,0
2016-11-18T00:13:30.176Z,0
2016-11-18T00:14:38.808Z,0
2016-11-18T00:15:47.439Z,0
2016-11-18T00:16:56.064Z,0
2016-11-18T00:18:04.684Z,0
2016-11-18T00:19:13.322Z,0
2016-11-18T00:20:21.948Z,0
2016-11-18T00:21:30.586Z,0
2016-11-18T00:22:39.250Z,0
2016-11-18T00:23:47.865Z,0
2016-11-18T00:24:56.484Z,0
2016-11-18T00:26:05.133Z,0
2016-11-18T00:27:13.751Z,0
2016-11-18T00:28:22.374Z,0
2016-11-18T00:29:31.023Z,0
2016-11-18T00:30:39.660Z,0
2016-11-18T00:31:48.300Z,0
2016-11-18T00:32:56.929Z,0
2016-11-18T00:34:05.593Z,0
2016-11-18T00:35:14.244Z,0
2016-11-18T00:36:22.900Z,0
2016-11-18T00:37:31.568Z,0
2016-11-18T00:38:40.185Z,0
2016-11-18T00:39:48.814Z,0
2016-11-18T00:40:57.452Z,0
2016-11-18T00:42:06.073Z,0
2016-11-18T00:43:14.726Z,0
2016-11-18T00:44:23.366Z,0
2016-11-18T00:45:31.987Z,0
2016-11-18T00:46:40.610Z,0
2016-11-18T00:47:49.229Z,0
2016-11-18T00:48:57.879Z,0
2016-11-18T00:50:06.528Z,0
2016-11-18T00:51:15.159Z,0
2016-11-18T00:52:23.813Z,0
2016-11-18T00:53:32.435Z,0
2016-11-18T00:54:41.073Z,0
2016-11-18T00:55:49.719Z,0
2016-11-18T00:56:58.323Z,0
2016-11-18T00:58:06.946Z,0
2016-11-18T00:59:15.568Z,0
2016-11-18T01:00:24.208Z,0
2016-11-18T01:01:32.838Z,0
2016-11-18T01:02:41.459Z,0
2016-11-18T01:03:50.075Z,0
2016-11-18T01:04:58.726Z,0
2016-11-18T01:06:07.345Z,0
2016-11-18T01:07:15.985Z,0
2016-11-18T01:08:24.609Z,0
2016-11-18T01:09:33.237Z,0
2016-11-18T01:10:41.851Z,0
2016-11-18T01:11:50.479Z,0
2016-11-18T01:12:59.095Z,0
2016-11-18T01:14:07.691Z,0
2016-11-18T01:15:16.332Z,0
2016-11-18T01:16:24.983Z,0
2016-11-18T01:17:33.605Z,0
2016-11-18T01:18:42.225Z,0
2016-11-18T01:19:50.896Z,0
2016-11-18T01:20:59.518Z,0
2016-11-18T01:22:08.144Z,0
2016-11-18T01:23:16.763Z,0
2016-11-18T01:24:25.385Z,0
2016-11-18T01:25:34.023Z,0
2016-11-18T01:26:42.968Z,0
2016-11-18T01:27:51.594Z,0
2016-11-18T01:29:00.222Z,0
2016-11-18T01:30:08.836Z,0
2016-11-18T01:31:17.482Z,0
2016-11-18T01:32:26.121Z,0
2016-11-18T01:33:34.755Z,0
2016-11-18T01:34:43.428Z,0
2016-11-18T01:35:52.064Z,0
2016-11-18T01:37:00.687Z,0
2016-11-18T01:38:09.334Z,0
2016-11-18T01:39:17.935Z,0
2016-11-18T01:40:26.632Z,0
2016-11-18T01:41:35.269Z,0
2016-11-18T01:42:43.900Z,0
2016-11-18T01:43:52.515Z,0
2016-11-18T01:45:01.139Z,0
2016-11-18T01:46:09.758Z,0
2016-11-18T01:47:18.400Z,0
2016-11-18T01:48:27.059Z,0
2016-11-18T01:49:35.693Z,0
2016-11-18T01:50:44.333Z,0
2016-11-18T01:51:52.960Z,0
2016-11-18T01:53:01.610Z,0
2016-11-18T01:54:10.252Z,0
2016-11-18T01:55:18.876Z,0
2016-11-18T01:56:27.503Z,0
2016-11-18T01:57:36.136Z,0
2016-11-18T01:58:44.768Z,0
2016-11-18T01:59:53.407Z,0
2016-11-18T02:01:02.037Z,0
2016-11-18T02:02:10.675Z,0
2016-11-18T02:03:19.300Z,0
2016-11-18T02:04:27.939Z,0
2016-11-18T02:05:36.596Z,0
2016-11-18T02:06:45.213Z,0
2016-11-18T02:07:53.850Z,0
2016-11-18T02:09:02.484Z,0
2016-11-18T02:10:11.122Z,0
2016-11-18T02:11:19.747Z,0
2016-11-18T02:12:28.348Z,0
2016-11-18T02:13:36.969Z,0
2016-11-18T02:14:45.606Z,0
2016-11-18T02:15:54.232Z,0
2016-11-18T02:17:02.900Z,0
2016-11-18T02:18:11.843Z,0
2016-11-18T02:19:20.461Z,0
2016-11-18T02:20:29.088Z,0
2016-11-18T02:21:37.732Z,0
2016-11-18T02:22:46.334Z,0
2016-11-18T02:23:54.980Z,0
2016-11-18T02:25:03.625Z,0
2016-11-18T02:26:12.274Z,0
2016-11-18T02:27:20.913Z,0
2016-11-18T02:28:29.539Z,0
2016-11-18T02:29:38.188Z,0
2016-11-18T02:30:46.788Z,0
2016-11-18T02:31:55.385Z,0
2016-11-18T02:33:04.026Z,0
2016-11-18T02:34:12.648Z,0
2016-11-18T02:35:21.257Z,0
2016-11-18T02:36:29.907Z,0
2016-11-18T02:37:38.532Z,0
2016-11-18T02:38:47.181Z,0
2016-11-18T02:39:55.800Z,0
2016-11-18T02:41:04.420Z,0
2016-11-18T02:42:13.062Z,0
2016-11-18T02:43:21.687Z,0
2016-11-18T02:44:30.313Z,0
2016-11-18T02:45:38.946Z,0
2016-11-18T02:46:47.577Z,0
2016-11-18T02:47:56.221Z,0
2016-11-18T02:49:04.843Z,0
2016-11-18T02:50:13.469Z,0
2016-11-18T02:51:22.087Z,0
2016-11-18T02:52:30.703Z,0
2016-11-18T02:53:39.326Z,0
2016-11-18T02:54:47.978Z,0
2016-11-18T02:55:56.611Z,0
2016-11-18T02:57:05.237Z,0
2016-11-18T02:58:13.890Z,0
2016-11-18T02:59:22.512Z,0
2016-11-18T03:00:31.445Z,0
2016-11-18T03:01:40.399Z,0
2016-11-18T03:02:49.038Z,0
2016-11-18T03:03:57.696Z,0
2016-11-18T03:05:06.334Z,0
2016-11-18T03:06:14.951Z,0
2016-11-18T03:07:23.555Z,0
2016-11-18T03:08:32.181Z,0
2016-11-18T03:09:40.823Z,0
2016-11-18T03:10:49.464Z,0
2016-11-18T03:11:58.096Z,0
2016-11-18T03:13:06.717Z,0
2016-11-18T03:14:15.355Z,0
2016-11-18T03:15:23.980Z,0
2016-11-18T03:16:32.620Z,0
2016-11-18T03:17:41.272Z,0
2016-11-18T03:18:49.907Z,0
2016-11-18T03:19:58.542Z,0
2016-11-18T03:21:07.186Z,0
2016-11-18T03:22:15.807Z,0
2016-11-18T03:23:24.453Z,0
2016-11-18T03:24:33.079Z,0
2016-11-18T03:25:41.713Z,0
2016-11-18T03:26:50.372Z,0
2016-11-18T03:27:59.001Z,0
2016-11-18T03:29:07.631Z,0
2016-11-18T03:30:16.250Z,0
2016-11-18T03:31:24.853Z,0
2016-11-18T03:32:33.499Z,0
2016-11-18T03:33:42.139Z,0
2016-11-18T03:34:50.761Z,0
2016-11-18T03:35:59.413Z,0
2016-11-18T03:37:08.045Z,0
2016-11-18T03:38:16.665Z,0
2016-11-18T03:39:25.304Z,0
2016-11-18T03:40:33.937Z,0
2016-11-18T03:41:42.561Z,0
2016-11-18T03:42:51.215Z,0
2016-11-18T03:43:59.825Z,0
2016-11-18T03:45:08.442Z,0
2016-11-18T03:46:17.100Z,0
2016-11-18T03:47:25.738Z,0
2016-11-18T03:48:34.365Z,0
2016-11-18T03:49:42.984Z,0
2016-11-18T03:50:51.622Z,0
2016-11-18T03:52:00.250Z,0
2016-11-18T03:53:08.896Z,0
2016-11-18T03:54:17.519Z,0
2016-11-18T03:55:26.164Z,0
2016-11-18T03:56:34.810Z,0
2016-11-18T03:57:43.410Z,0
2016-11-18T03:58:52.003Z,0
2016-11-18T04:00:00.623Z,0
2016-11-18T04:01:09.274Z,0
2016-11-18T04:02:17.935Z,0
2016-11-18T04:03:26.582Z,0
2016-11-18T04:04:35.241Z,0
2016-11-18T04:05:43.870Z,0
2016-11-18T04:06:52.498Z,0
2016-11-18T04:08:01.150Z,0
2016-11-18T04:09:09.770Z,0
2016-11-18T04:10:18.371Z,0
2016-11-18T04:11:27.014Z,0
2016-11-18T04:12:35.629Z,0
2016-11-18T04:13:44.255Z,0
2016-11-18T04:14:52.864Z,0
2016-11-18T04:16:01.493Z,0
2016-11-18T04:17:10.106Z,0
2016-11-18T04:18:18.736Z,0
2016-11-18T04:19:27.385Z,0
2016-11-18T04:20:36.022Z,0
2016-11-18T04:21:44.650Z,0
2016-11-18T04:22:53.271Z,0
2016-11-18T04:24:01.890Z,0
2016-11-18T04:25:10.543Z,0
2016-11-18T04:26:19.162Z,0
2016-11-18T04:27:27.780Z,0
2016-11-18T04:28:36.417Z,0
2016-11-18T04:29:45.068Z,0
2016-11-18T04:30:53.676Z,0
2016-11-18T04:32:02.338Z,0
2016-11-18T04:33:10.967Z,0
2016-11-18T04:34:19.614Z,0
2016-11-18T04:35:28.230Z,0
2016-11-18T04:36:36.840Z,0
2016-11-18T04:37:45.473Z,0
2016-11-18T04:38:54.124Z,0
2016-11-18T04:40:02.783Z,0
2016-11-18T04:41:11.433Z,0
2016-11-18T04:42:20.075Z,0
2016-11-18T04:43:28.715Z,0
2016-11-18T04:44:37.342Z,0
2016-11-18T04:45:45.968Z,0
2016-11-18T04:46:54.592Z,0
2016-11-18T04:48:03.234Z,0
2016-11-18T04:49:11.861Z,0
2016-11-18T04:50:20.476Z,0
2016-11-18T04:51:29.128Z,0
2016-11-18T04:52:37.751Z,0
2016-11-18T04:53:46.372Z,0
2016-11-18T04:54:55.002Z,0
2016-11-18T04:56:03.625Z,0
2016-11-18T04:57:12.253Z,0
2016-11-18T04:58:20.880Z,0
2016-11-18T04:59:29.518Z,0
2016-11-18T05:00:38.166Z,0
2016-11-18T05:01:46.794Z,0
2016-11-18T05:02:55.415Z,0
2016-11-18T05:04:04.062Z,0
2016-11-18T05:05:12.697Z,0
2016-11-18T05:06:21.327Z,0
2016-11-18T05:07:29.960Z,0
2016-11-18T05:08:38.597Z,0
2016-11-18T05:09:47.240Z,0
2016-11-18T05:10:55.867Z,0
2016-11-18T05:12:04.483Z,0
2016-11-18T05:13:13.121Z,0
2016-11-18T05:14:21.751Z,0
2016-11-18T05:15:30.383Z,0
2016-11-18T05:16:38.986Z,0
2016-11-18T05:17:47.630Z,0
2016-11-18T05:18:56.572Z,0
2016-11-18T05:20:05.203Z,0
2016-11-18T05:21:13.823Z,0
2016-11-18T05:22:22.450Z,0
2016-11-18T05:23:31.085Z,0
2016-11-18T05:24:39.735Z,0
2016-11-18T05:25:48.381Z,0
2016-11-18T05:26:57.006Z,0
2016-11-18T05:28:05.645Z,0
2016-11-18T05:29:14.279Z,0
2016-11-18T05:30:22.919Z,0
2016-11-18T05:31:31.553Z,0
2016-11-18T05:32:40.187Z,0
2016-11-18T05:33:48.828Z,0
2016-11-18T05:34:57.475Z,0
2016-11-18T05:36:06.105Z,0
2016-11-18T05:37:14.764Z,0
2016-11-18T05:38:23.405Z,0
2016-11-18T05:39:32.041Z,0
2016-11-18T05:40:40.657Z,0
2016-11-18T05:41:49.270Z,0
2016-11-18T05:42:57.897Z,0
2016-11-18T05:44:06.565Z,0
2016-11-18T05:45:15.216Z,0
2016-11-18T05:46:23.861Z,0
2016-11-18T05:47:32.482Z,0
2016-11-18T05:48:41.110Z,0
2016-11-18T05:49:49.742Z,0
2016-11-18T05:50:58.370Z,0
2016-11-18T05:52:07.353Z,0
2016-11-18T05:53:15.968Z,0
2016-11-18T05:54:24.590Z,0
2016-11-18T05:55:33.226Z,0
2016-11-18T05:56:41.868Z,0
2016-11-18T05:57:50.472Z,0
2016-11-18T05:59:31.184Z,0
2016-11-18T06:00:39.813Z,0
2016-11-18T06:01:48.409Z,0
2016-11-18T06:02:57.007Z,0
2016-11-18T06:04:05.630Z,0
2016-11-18T06:05:51.380Z,0
2016-11-18T06:06:59.968Z,0
2016-11-18T06:08:08.565Z,0
2016-11-18T06:09:17.158Z,0
2016-11-18T06:10:25.756Z,0
2016-11-18T06:11:34.351Z,0
2016-11-18T06:12:42.950Z,0
2016-11-18T06:13:51.568Z,0
2016-11-18T06:15:00.164Z,0
2016-11-18T06:16:08.828Z,0
2016-11-18T06:17:17.461Z,0
2016-11-18T06:18:26.095Z,0
2016-11-18T06:19:34.743Z,0
2016-11-18T06:20:43.361Z,0
2016-11-18T06:21:51.999Z,0
2016-11-18T06:23:00.630Z,0
2016-11-18T06:24:09.240Z,0
2016-11-18T06:25:17.836Z,0
2016-11-18T06:26:26.472Z,0
2016-11-18T06:27:35.103Z,0
2016-11-18T06:28:43.725Z,0
2016-11-18T06:29:52.358Z,5
2016-11-18T06:31:01.262Z,5
2016-11-18T06:32:09.889Z,5
2016-11-18T06:33:18.531Z,5
2016-11-18T06:34:27.153Z,5
2016-11-18T06:35:35.746Z,5
2016-11-18T06:36:44.374Z,5
2016-11-18T06:37:52.992Z,5
2016-11-18T06:39:01.636Z,10
2016-11-18T06:40:10.547Z,10
2016-11-18T06:41:19.169Z,10
2016-11-18T06:42:27.801Z,10
2016-11-18T06:43:36.447Z,10
2016-11-18T06:44:45.393Z,15
2016-11-18T06:45:54.027Z,15
2016-11-18T06:47:02.640Z,15
2016-11-18T06:48:11.269Z,15
2016-11-18T06:49:19.874Z,15
2016-11-18T06:50:28.488Z,10
2016-11-18T06:51:37.146Z,10
2016-11-18T06:52:45.764Z,10
2016-11-18T06:53:54.406Z,10
2016-11-18T06:55:03.047Z,10
2016-11-18T06:56:11.698Z,10
2016-11-18T06:57:20.352Z,15
2016-11-18T06:58:28.970Z,20
2016-11-18T06:59:37.570Z,25
2016-11-18T07:00:46.203Z,25
2016-11-18T07:01:54.887Z,25
2016-11-18T07:03:03.488Z,25
2016-11-18T07:04:12.116Z,25
2016-11-18T07:05:20.746Z,25
2016-11-18T07:06:29.363Z,20
2016-11-18T07:07:37.994Z,20
2016-11-18T07:08:46.630Z,25
2016-11-18T07:09:55.277Z,30
2016-11-18T07:11:03.903Z,30
2016-11-18T07:12:12.522Z,30
2016-11-18T07:13:21.173Z,25
2016-11-18T07:14:29.807Z,30
2016-11-18T07:15:38.490Z,20
2016-11-18T07:16:47.140Z,25
2016-11-18T07:17:55.758Z,25
2016-11-18T07:19:04.404Z,30
2016-11-18T07:20:13.025Z,40
2016-11-18T07:21:21.667Z,45
2016-11-18T07:22:30.296Z,50
2016-11-18T07:23:38.887Z,60
2016-11-18T07:24:47.516Z,70
2016-11-18T07:25:56.159Z,80
2016-11-18T07:27:04.788Z,85
2016-11-18T07:28:13.417Z,95
2016-11-18T07:29:22.043Z,100
2016-11-18T07:30:30.679Z,95
2016-11-18T07:31:39.653Z,100
2016-11-18T07:32:48.306Z,105
2016-11-18T07:33:56.905Z,110
2016-11-18T07:35:05.542Z,110
2016-11-18T07:36:14.165Z,110
2016-11-18T07:37:22.837Z,110
2016-11-18T07:38:31.438Z,115
2016-11-18T07:39:40.103Z,115
2016-11-18T07:40:48.755Z,115
2016-11-18T07:41:57.378Z,115
2016-11-18T07:43:06.010Z,115
2016-11-18T07:44:14.661Z,115
2016-11-18T07:45:23.327Z,120
2016-11-18T07:46:31.961Z,115
2016-11-18T07:47:40.605Z,115
2016-11-18T07:48:49.245Z,115
2016-11-18T07:49:57.873Z,115
2016-11-18T07:51:06.515Z,120
2016-11-18T07:52:15.179Z,120
2016-11-18T07:53:23.784Z,120
2016-11-18T07:54:32.421Z,125
2016-11-18T07:55:41.051Z,125
2016-11-18T07:56:49.963Z,120
2016-11-18T07:57:58.617Z,125
2016-11-18T07:59:07.259Z,120
2016-11-18T08:00:15.889Z,120
2016-11-18T08:01:24.497Z,130
2016-11-18T08:02:33.148Z,150
2016-11-18T08:03:41.789Z,160
2016-11-18T08:04:50.418Z,140
2016-11-18T08:05:59.044Z,135
2016-11-18T08:07:07.685Z,150
2016-11-18T08:08:16.338Z,125
2016-11-18T08:09:24.955Z,110
2016-11-18T08:10:33.582Z,80
2016-11-18T08:11:42.212Z,85
2016-11-18T08:12:50.819Z,65
2016-11-18T08:13:59.459Z,90
2016-11-18T08:15:08.137Z,85
2016-11-18T08:16:16.748Z,100
2016-11-18T08:17:25.381Z,125
2016-11-18T08:18:34.001Z,125
2016-11-18T08:19:42.947Z,115
2016-11-18T08:20:51.571Z,135
2016-11-18T08:22:00.210Z,145
2016-11-18T08:23:08.831Z,135
2016-11-18T08:24:17.430Z,130
2016-11-18T08:25:26.053Z,130
2016-11-18T08:26:34.698Z,140
2016-11-18T08:27:43.341Z,145
2016-11-18T08:28:51.967Z,150
2016-11-18T08:30:00.590Z,155
2016-11-18T08:31:09.209Z,155
2016-11-18T08:32:17.832Z,140
2016-11-18T08:33:26.773Z,150
2016-11-18T08:34:36.146Z,170
2016-11-18T08:35:44.781Z,160
2016-11-18T08:36:53.415Z,170
2016-11-18T08:38:02.034Z,165
2016-11-18T08:39:10.655Z,150
2016-11-18T08:40:19.295Z,155
2016-11-18T08:41:27.921Z,170
2016-11-18T08:42:36.562Z,170
2016-11-18T08:43:45.212Z,170
2016-11-18T08:44:53.837Z,180
2016-11-18T08:46:02.471Z,180
2016-11-18T08:47:11.402Z,175
2016-11-18T08:48:20.039Z,170
2016-11-18T08:49:28.684Z,165
2016-11-18T08:50:37.305Z,180
2016-11-18T08:51:45.959Z,180
2016-11-18T08:52:54.607Z,160
2016-11-18T08:54:03.230Z,145
2016-11-18T08:55:11.883Z,170
2016-11-18T08:56:20.519Z,205
2016-11-18T08:57:29.165Z,175
2016-11-18T08:58:37.808Z,180
2016-11-18T08:59:46.449Z,180
2016-11-18T09:00:55.135Z,175
2016-11-18T09:02:03.753Z,160
2016-11-18T09:03:12.376Z,175
2016-11-18T09:04:21.016Z,160
2016-11-18T09:05:29.656Z,165
2016-11-18T09:06:38.466Z,160
2016-11-18T09:07:47.110Z,160
2016-11-18T09:08:55.769Z,160
2016-11-18T09:10:04.420Z,160
2016-11-18T09:11:13.047Z,190
2016-11-18T09:12:21.673Z,165
2016-11-18T09:13:30.338Z,180
2016-11-18T09:14:38.978Z,190
2016-11-18T09:15:47.609Z,195
2016-11-18T09:16:56.246Z,175
2016-11-18T09:18:04.893Z,185
2016-11-18T09:19:13.888Z,165
2016-11-18T09:20:22.542Z,170
2016-11-18T09:21:31.181Z,160
2016-11-18T09:22:39.801Z,165
2016-11-18T09:23:48.438Z,195
2016-11-18T09:24:57.105Z,240
2016-11-18T09:26:05.743Z,235
2016-11-18T09:27:14.394Z,225
2016-11-18T09:28:23.010Z,230
2016-11-18T09:29:31.612Z,245
2016-11-18T09:30:40.303Z,305
2016-11-18T09:31:48.929Z,325
2016-11-18T09:32:57.545Z,280
2016-11-18T09:34:06.184Z,235
2016-11-18T09:35:14.817Z,195
2016-11-18T09:36:23.733Z,195
2016-11-18T09:37:32.371Z,185
2016-11-18T09:38:41.032Z,170
2016-11-18T09:39:49.680Z,140
2016-11-18T09:40:58.293Z,185
2016-11-18T09:42:06.970Z,200
2016-11-18T09:43:15.631Z,185
2016-11-18T09:44:24.262Z,180
2016-11-18T09:45:32.898Z,200
2016-11-18T09:46:41.540Z,205
2016-11-18T09:47:50.201Z,160
2016-11-18T09:48:58.845Z,150
2016-11-18T09:50:07.478Z,150
2016-11-18T09:51:16.107Z,200
2016-11-18T09:52:24.732Z,260
2016-11-18T09:53:33.371Z,275
2016-11-18T09:54:41.997Z,270
2016-11-18T09:55:50.621Z,280
2016-11-18T09:56:59.258Z,235
2016-11-18T09:58:07.885Z,210
2016-11-18T09:59:16.522Z,185
2016-11-18T10:00:25.168Z,165
2016-11-18T10:01:33.813Z,95
2016-11-18T10:02:42.459Z,55
2016-11-18T10:03:51.065Z,25
2016-11-18T10:04:59.701Z,30
2016-11-18T10:06:08.335Z,40
2016-11-18T10:07:16.968Z,60
2016-11-18T10:08:25.576Z,80
2016-11-18T10:09:34.211Z,85
2016-11-18T10:10:42.821Z,85
2016-11-18T10:11:51.462Z,95
2016-11-18T10:13:00.107Z,120
2016-11-18T10:14:08.758Z,145
2016-11-18T10:15:17.421Z,150
2016-11-18T10:16:26.064Z,160
2016-11-18T10:17:34.684Z,160
2016-11-18T10:18:43.308Z,150
2016-11-18T10:19:51.943Z,150
2016-11-18T10:21:00.608Z,210
2016-11-18T10:22:09.243Z,210
2016-11-18T10:23:17.852Z,185
2016-11-18T10:24:26.485Z,180
2016-11-18T10:25:35.094Z,165
2016-11-18T10:26:43.711Z,130
2016-11-18T10:27:52.336Z,125
2016-11-18T10:29:00.969Z,135
2016-11-18T10:30:09.617Z,150
2016-11-18T10:31:18.241Z,155
2016-11-18T10:32:26.883Z,135
2016-11-18T10:33:35.508Z,145
2016-11-18T10:34:44.138Z,125
2016-11-18T10:35:52.776Z,145
2016-11-18T10:37:01.418Z,165
2016-11-18T10:38:10.047Z,155
2016-11-18T10:39:18.672Z,120
2016-11-18T10:40:27.306Z,95
2016-11-18T10:41:35.934Z,75
2016-11-18T10:42:44.561Z,70
2016-11-18T10:43:53.186Z,85
2016-11-18T10:45:02.128Z,130
2016-11-18T10:46:10.748Z,195
2016-11-18T10:47:19.387Z,210
2016-11-18T10:48:28.003Z,195
2016-11-18T10:49:36.636Z,175
2016-11-18T10:50:45.270Z,170
2016-11-18T10:51:53.897Z,165
2016-11-18T10:53:02.538Z,160
2016-11-18T10:54:11.147Z,175
2016-11-18T10:55:19.769Z,200
2016-11-18T10:56:28.409Z,260
2016-11-18T10:57:37.033Z,325
2016-11-18T10:58:45.627Z,310
2016-11-18T10:59:54.276Z,280
2016-11-18T11:01:02.892Z,235
2016-11-18T11:02:11.549Z,175
2016-11-18T11:03:20.179Z,135
2016-11-18T11:04:28.812Z,105
2016-11-18T11:05:37.446Z,95
2016-11-18T11:06:46.076Z,105
2016-11-18T11:07:54.717Z,120
2016-11-18T11:09:03.363Z,110
2016-11-18T11:10:12.006Z,110
2016-11-18T11:11:20.639Z,115
2016-11-18T11:12:29.257Z,100
2016-11-18T11:13:37.909Z,90
2016-11-18T11:14:46.530Z,80
2016-11-18T11:15:55.152Z,70
2016-11-18T11:17:03.747Z,65
2016-11-18T11:18:12.453Z,60
2016-11-18T11:19:21.075Z,70
2016-11-18T11:20:29.696Z,75
2016-11-18T11:21:38.328Z,60
2016-11-18T11:22:46.953Z,55
2016-11-18T11:23:55.591Z,75
2016-11-18T11:25:04.193Z,90
2016-11-18T11:26:12.806Z,95
2016-11-18T11:27:21.448Z,95
2016-11-18T11:28:30.052Z,65
2016-11-18T11:29:38.678Z,50
2016-11-18T11:30:47.311Z,45
2016-11-18T11:31:55.946Z,40
2016-11-18T11:33:04.588Z,45
2016-11-18T11:34:13.214Z,45
2016-11-18T11:35:21.850Z,55
2016-11-18T11:36:30.492Z,75
2016-11-18T11:37:39.121Z,105
2016-11-18T11:38:48.072Z,135
2016-11-18T11:39:56.692Z,150
2016-11-18T11:41:05.339Z,165
2016-11-18T11:42:13.959Z,180
2016-11-18T11:43:22.598Z,195
2016-11-18T11:44:31.253Z,195
2016-11-18T11:45:39.866Z,210
2016-11-18T11:46:48.495Z,205
2016-11-18T11:47:57.140Z,180
2016-11-18T11:49:05.787Z,140
2016-11-18T11:50:14.425Z,145
2016-11-18T11:51:23.079Z,155
2016-11-18T11:52:31.716Z,180
2016-11-18T11:53:40.335Z,210
2016-11-18T11:54:48.964Z,210
2016-11-18T11:55:57.614Z,185
2016-11-18T11:57:06.253Z,155
2016-11-18T11:58:14.883Z,135
2016-11-18T11:59:23.504Z,125
2016-11-18T12:00:32.162Z,115
2016-11-18T12:01:40.795Z,110
2016-11-18T12:02:49.438Z,115
2016-11-18T12:03:58.062Z,120
2016-11-18T12:05:06.684Z,135
2016-11-18T12:06:15.299Z,150
2016-11-18T12:07:23.913Z,165
2016-11-18T12:08:32.542Z,160
2016-11-18T12:09:41.167Z,170
2016-11-18T12:10:49.810Z,160
2016-11-18T12:11:58.406Z,150
2016-11-18T12:13:07.049Z,140
2016-11-18T12:14:15.676Z,135
2016-11-18T12:15:24.337Z,120
2016-11-18T12:16:32.968Z,115
2016-11-18T12:17:41.589Z,115
2016-11-18T12:18:50.209Z,115
2016-11-18T12:19:58.856Z,135
2016-11-18T12:21:07.451Z,150
2016-11-18T12:22:16.093Z,150
2016-11-18T12:23:24.760Z,145
2016-11-18T12:24:33.395Z,125
2016-11-18T12:25:42.032Z,110
2016-11-18T12:26:50.688Z,95
2016-11-18T12:27:59.349Z,95
2016-11-18T12:29:08.001Z,90
2016-11-18T12:30:16.621Z,85
2016-11-18T12:31:25.246Z,70
2016-11-18T12:32:33.853Z,60
2016-11-18T12:33:42.482Z,65
2016-11-18T12:34:51.128Z,75
2016-11-18T12:35:59.754Z,90
2016-11-18T12:37:08.376Z,95
2016-11-18T12:38:16.968Z,80
2016-11-18T12:39:25.613Z,95
2016-11-18T12:40:34.237Z,100
2016-11-18T12:41:42.862Z,95
2016-11-18T12:42:51.511Z,105
2016-11-18T12:44:00.148Z,100
2016-11-18T12:45:08.794Z,105
2016-11-18T12:46:17.443Z,120
2016-11-18T12:47:26.078Z,150
2016-11-18T12:48:34.698Z,140
2016-11-18T12:49:43.327Z,120
2016-11-18T12:50:51.952Z,95
2016-11-18T12:52:00.569Z,85
2016-11-18T12:53:09.219Z,85
2016-11-18T12:54:17.858Z,105
2016-11-18T12:55:26.482Z,125
2016-11-18T12:56:35.121Z,125
2016-11-18T12:57:43.776Z,125
2016-11-18T12:58:52.417Z,155
2016-11-18T13:00:01.057Z,185
2016-11-18T13:01:09.968Z,195
2016-11-18T13:02:18.593Z,195
2016-11-18T13:03:27.205Z,180
2016-11-18T13:04:35.842Z,190
2016-11-18T13:05:44.475Z,205
2016-11-18T13:06:53.094Z,190
2016-11-18T13:08:01.735Z,155
2016-11-18T13:09:10.362Z,140
2016-11-18T13:10:18.998Z,120
2016-11-18T13:11:27.624Z,105
2016-11-18T13:12:36.253Z,95
2016-11-18T13:13:44.886Z,95
2016-11-18T13:14:53.490Z,150
2016-11-18T13:16:02.116Z,205
2016-11-18T13:17:10.807Z,245
2016-11-18T13:18:19.447Z,240
2016-11-18T13:19:28.372Z,180
2016-11-18T13:20:37.017Z,145
2016-11-18T13:21:45.659Z,145
2016-11-18T13:22:54.305Z,130
2016-11-18T13:24:02.910Z,125
2016-11-18T13:25:11.536Z,120
2016-11-18T13:26:20.219Z,120
2016-11-18T13:27:28.872Z,125
2016-11-18T13:28:37.511Z,145
2016-11-18T13:29:46.158Z,140
2016-11-18T13:30:54.788Z,150
2016-11-18T13:32:03.453Z,155
2016-11-18T13:33:12.095Z,150
2016-11-18T13:34:20.721Z,135
2016-11-18T13:35:29.370Z,130
2016-11-18T13:36:38.001Z,125
2016-11-18T13:37:46.615Z,115
2016-11-18T13:38:55.259Z,105
2016-11-18T13:40:03.885Z,100
2016-11-18T13:41:12.526Z,105
2016-11-18T13:42:21.168Z,110
2016-11-18T13:43:29.797Z,115
2016-11-18T13:44:38.436Z,110
2016-11-18T13:45:47.089Z,110
2016-11-18T13:46:55.706Z,105
2016-11-18T13:48:04.335Z,105
2016-11-18T13:49:12.965Z,105
2016-11-18T13:50:21.576Z,110
2016-11-18T13:51:30.207Z,110
2016-11-18T13:52:38.836Z,110
2016-11-18T13:53:47.507Z,95
2016-11-18T13:54:56.132Z,100
2016-11-18T13:56:04.749Z,100
2016-11-18T13:57:13.377Z,90
2016-11-18T13:58:22.008Z,90
2016-11-18T13:59:30.616Z,80
2016-11-18T14:00:39.251Z,75
2016-11-18T14:01:47.876Z,70
2016-11-18T14:02:56.531Z,60
2016-11-18T14:04:05.169Z,65
2016-11-18T14:05:13.811Z,70
2016-11-18T14:06:22.445Z,65
2016-11-18T14:07:31.037Z,70
2016-11-18T14:08:39.660Z,70
2016-11-18T14:09:48.303Z,80
2016-11-18T14:10:56.941Z,95
2016-11-18T14:12:05.577Z,105
2016-11-18T14:13:14.221Z,80
2016-11-18T14:14:22.895Z,75
2016-11-18T14:15:31.812Z,75
2016-11-18T14:16:40.446Z,70
2016-11-18T14:17:49.077Z,65
2016-11-18T14:18:57.701Z,70
2016-11-18T14:20:06.320Z,70
2016-11-18T14:21:14.945Z,65
2016-11-18T14:22:23.586Z,60
2016-11-18T14:23:32.223Z,55
2016-11-18T14:24:40.828Z,55
2016-11-18T14:25:49.503Z,50
2016-11-18T14:26:58.123Z,55
2016-11-18T14:28:06.776Z,45
2016-11-18T14:29:15.413Z,35
2016-11-18T14:30:24.030Z,30
2016-11-18T14:31:32.684Z,30
2016-11-18T14:32:41.334Z,25
2016-11-18T14:33:49.937Z,25
2016-11-18T14:34:58.543Z,25
2016-11-18T14:36:07.158Z,30
2016-11-18T14:37:15.789Z,30
2016-11-18T14:38:24.426Z,30
2016-11-18T14:39:33.057Z,30
2016-11-18T14:40:41.700Z,30
2016-11-18T14:41:50.321Z,30
2016-11-18T14:42:58.961Z,30
2016-11-18T14:44:07.904Z,30
2016-11-18T14:45:16.529Z,25
2016-11-18T14:46:25.153Z,25
2016-11-18T14:47:33.777Z,20
2016-11-18T14:48:42.396Z,15
2016-11-18T14:49:51.021Z,15
2016-11-18T14:50:59.634Z,15
2016-11-18T14:52:08.283Z,15
2016-11-18T14:53:16.910Z,10
2016-11-18T14:54:25.548Z,10
2016-11-18T14:55:34.222Z,10
2016-11-18T14:56:43.164Z,5
2016-11-18T14:57:52.071Z,5
2016-11-18T14:59:00.710Z,5
2016-11-18T15:00:09.337Z,5
2016-11-18T15:01:17.955Z,5
2016-11-18T15:02:26.577Z,5
2016-11-18T15:03:35.198Z,5
2016-11-18T15:04:43.821Z,5
2016-11-18T15:05:52.439Z,5
2016-11-18T15:07:01.059Z,5
2016-11-18T15:08:09.687Z,5
2016-11-18T15:09:18.323Z,5
2016-11-18T15:10:26.953Z,0
2016-11-18T15:11:35.622Z,0
2016-11-18T15:12:44.248Z,0
2016-11-18T15:13:53.216Z,0
2016-11-18T15:15:01.838Z,0
2016-11-18T15:16:10.436Z,0
2016-11-18T15:17:19.033Z,0
2016-11-18T15:18:27.674Z,0
2016-11-18T15:19:36.290Z,0
2016-11-18T15:20:44.933Z,0
2016-11-18T15:21:53.559Z,0
2016-11-18T15:23:02.196Z,0
2016-11-18T15:24:10.825Z,0
2016-11-18T15:25:19.743Z,0
2016-11-18T15:26:28.666Z,0
2016-11-18T15:27:37.293Z,0
2016-11-18T15:28:45.913Z,0
2016-11-18T15:29:54.547Z,0
2016-11-18T15:31:03.173Z,0
2016-11-18T15:32:11.797Z,0
2016-11-18T15:33:20.448Z,0
2016-11-18T15:34:29.081Z,0
2016-11-18T15:35:37.715Z,0
2016-11-18T15:36:46.634Z,0
2016-11-18T15:37:55.269Z,0
2016-11-18T15:39:03.920Z,0
2016-11-18T15:40:12.550Z,0
2016-11-18T15:41:21.195Z,0
2016-11-18T15:42:29.804Z,0
2016-11-18T15:43:38.410Z,0
2016-11-18T15:44:47.033Z,0
2016-11-18T15:45:55.675Z,0
2016-11-18T15:47:04.313Z,0
2016-11-18T15:48:12.947Z,0
2016-11-18T15:49:21.567Z,0
2016-11-18T15:50:30.189Z,0
2016-11-18T15:51:38.830Z,0
2016-11-18T15:52:47.455Z,0
2016-11-18T15:53:56.097Z,0
2016-11-18T15:55:04.720Z,0
2016-11-18T15:56:13.369Z,0
2016-11-18T15:57:22.007Z,0
2016-11-18T15:58:30.663Z,0
2016-11-18T15:59:39.279Z,0
2016-11-18T16:00:47.904Z,0
2016-11-18T16:01:56.523Z,0
2016-11-18T16:03:05.444Z,0
2016-11-18T16:04:14.067Z,0
2016-11-18T16:05:22.679Z,0
2016-11-18T16:06:31.327Z,0
2016-11-18T16:07:40.268Z,0
2016-11-18T16:08:48.889Z,0
2016-11-18T16:09:57.524Z,0
2016-11-18T16:11:06.168Z,0
2016-11-18T16:12:14.785Z,0
2016-11-18T16:13:23.423Z,0
2016-11-18T16:14:32.384Z,0
2016-11-18T16:15:40.997Z,0
2016-11-18T16:16:49.649Z,0
2016-11-18T16:17:58.417Z,0
2016-11-18T16:19:07.378Z,0
2016-11-18T16:20:16.013Z,0
2016-11-18T16:21:24.977Z,0
2016-11-18T16:22:33.653Z,0
2016-11-18T16:23:42.267Z,0
2016-11-18T16:24:50.886Z,0
2016-11-18T16:25:59.529Z,0